sensor_id;sensor_type;location;lat;lon;timestamp;P1;durP1;ratioP1;P2;durP2;ratioP2
12900;SDS011;6518;50.930;5.344;2022-12-29T00:00:12;1.93;;;1.30;;
12900;SDS011;6518;50.930;5.344;2022-12-29T00:02:40;1.60;;;1.10;;
12900;SDS011;6518;50.930;5.344;2022-12-29T00:05:07;1.47;;;1.30;;
12900;SDS011;6518;50.930;5.344;2022-12-29T00:07:33;3.00;;;1.10;;
12900;SDS011;6518;50.930;5.344;2022-12-29T00:10:00;3.93;;;1.10;;
12900;SDS011;6518;50.930;5.344;2022-12-29T00:12:27;3.27;;;1.00;;
12900;SDS011;6518;50.930;5.344;2022-12-29T00:15:16;2.03;;;1.00;;
12900;SDS011;6518;50.930;5.344;2022-12-29T00:18:00;1.27;;;0.90;;
12900;SDS011;6518;50.930;5.344;2022-12-29T00:20:27;2.57;;;0.93;;
12900;SDS011;6518;50.930;5.344;2022-12-29T00:23:11;1.03;;;0.90;;
12900;SDS011;6518;50.930;5.344;2022-12-29T00:25:55;2.27;;;1.00;;
12900;SDS011;6518;50.930;5.344;2022-12-29T00:28:38;4.07;;;1.27;;
12900;SDS011;6518;50.930;5.344;2022-12-29T00:31:24;1.33;;;0.80;;
12900;SDS011;6518;50.930;5.344;2022-12-29T00:34:10;1.63;;;0.80;;
12900;SDS011;6518;50.930;5.344;2022-12-29T00:36:54;1.13;;;0.70;;
12900;SDS011;6518;50.930;5.344;2022-12-29T00:39:22;1.00;;;0.83;;
12900;SDS011;6518;50.930;5.344;2022-12-29T00:42:07;2.63;;;0.80;;
12900;SDS011;6518;50.930;5.344;2022-12-29T00:44:57;0.70;;;0.70;;
12900;SDS011;6518;50.930;5.344;2022-12-29T00:47:25;0.97;;;0.77;;
12900;SDS011;6518;50.930;5.344;2022-12-29T00:49:52;1.30;;;1.00;;
12900;SDS011;6518;50.930;5.344;2022-12-29T00:52:18;0.97;;;0.70;;
12900;SDS011;6518;50.930;5.344;2022-12-29T00:54:45;0.70;;;0.70;;
12900;SDS011;6518;50.930;5.344;2022-12-29T00:57:12;1.33;;;0.77;;
12900;SDS011;6518;50.930;5.344;2022-12-29T00:59:39;1.17;;;0.70;;
12900;SDS011;6518;50.930;5.344;2022-12-29T01:02:08;1.27;;;0.80;;
12900;SDS011;6518;50.930;5.344;2022-12-29T01:04:37;0.80;;;0.70;;
12900;SDS011;6518;50.930;5.344;2022-12-29T01:07:04;1.70;;;0.80;;
12900;SDS011;6518;50.930;5.344;2022-12-29T01:09:31;1.47;;;0.80;;
12900;SDS011;6518;50.930;5.344;2022-12-29T01:12:15;1.63;;;0.80;;
12900;SDS011;6518;50.930;5.344;2022-12-29T01:14:42;1.63;;;0.90;;
12900;SDS011;6518;50.930;5.344;2022-12-29T01:17:08;4.30;;;1.10;;
12900;SDS011;6518;50.930;5.344;2022-12-29T01:19:35;4.00;;;1.10;;
12900;SDS011;6518;50.930;5.344;2022-12-29T01:22:03;1.43;;;0.80;;
12900;SDS011;6518;50.930;5.344;2022-12-29T01:24:30;3.10;;;1.20;;
12900;SDS011;6518;50.930;5.344;2022-12-29T01:26:57;1.90;;;0.87;;
12900;SDS011;6518;50.930;5.344;2022-12-29T01:29:24;1.77;;;0.90;;
12900;SDS011;6518;50.930;5.344;2022-12-29T01:31:51;4.33;;;1.00;;
12900;SDS011;6518;50.930;5.344;2022-12-29T01:34:17;2.00;;;0.80;;
12900;SDS011;6518;50.930;5.344;2022-12-29T01:36:45;2.37;;;0.90;;
12900;SDS011;6518;50.930;5.344;2022-12-29T01:39:12;2.33;;;1.07;;
12900;SDS011;6518;50.930;5.344;2022-12-29T01:41:39;1.40;;;0.90;;
12900;SDS011;6518;50.930;5.344;2022-12-29T01:47:10;1.57;;;1.00;;
12900;SDS011;6518;50.930;5.344;2022-12-29T01:49:37;1.97;;;1.00;;
12900;SDS011;6518;50.930;5.344;2022-12-29T01:52:06;2.37;;;1.20;;
12900;SDS011;6518;50.930;5.344;2022-12-29T01:54:34;3.23;;;1.10;;
12900;SDS011;6518;50.930;5.344;2022-12-29T01:57:07;1.40;;;0.90;;
12900;SDS011;6518;50.930;5.344;2022-12-29T01:59:39;2.20;;;0.90;;
12900;SDS011;6518;50.930;5.344;2022-12-29T02:02:09;4.00;;;1.30;;
12900;SDS011;6518;50.930;5.344;2022-12-29T02:04:38;3.83;;;1.20;;
12900;SDS011;6518;50.930;5.344;2022-12-29T02:07:11;2.60;;;1.00;;
12900;SDS011;6518;50.930;5.344;2022-12-29T02:09:42;1.63;;;0.87;;
12900;SDS011;6518;50.930;5.344;2022-12-29T02:12:12;1.43;;;1.00;;
12900;SDS011;6518;50.930;5.344;2022-12-29T02:14:40;1.70;;;1.00;;
12900;SDS011;6518;50.930;5.344;2022-12-29T02:17:08;1.93;;;0.90;;
12900;SDS011;6518;50.930;5.344;2022-12-29T02:19:53;2.50;;;0.93;;
12900;SDS011;6518;50.930;5.344;2022-12-29T02:22:48;1.63;;;0.73;;
12900;SDS011;6518;50.930;5.344;2022-12-29T02:25:31;1.00;;;0.80;;
12900;SDS011;6518;50.930;5.344;2022-12-29T02:28:19;1.33;;;0.70;;
12900;SDS011;6518;50.930;5.344;2022-12-29T02:31:05;1.47;;;0.70;;
12900;SDS011;6518;50.930;5.344;2022-12-29T02:33:44;1.43;;;0.70;;
12900;SDS011;6518;50.930;5.344;2022-12-29T02:36:20;2.70;;;1.03;;
12900;SDS011;6518;50.930;5.344;2022-12-29T02:38:56;1.90;;;0.80;;
12900;SDS011;6518;50.930;5.344;2022-12-29T02:41:29;2.90;;;0.80;;
12900;SDS011;6518;50.930;5.344;2022-12-29T02:44:01;1.57;;;0.80;;
12900;SDS011;6518;50.930;5.344;2022-12-29T02:46:39;2.27;;;0.63;;
12900;SDS011;6518;50.930;5.344;2022-12-29T02:49:10;2.00;;;0.70;;
12900;SDS011;6518;50.930;5.344;2022-12-29T02:51:44;1.73;;;0.60;;
12900;SDS011;6518;50.930;5.344;2022-12-29T02:54:17;1.17;;;0.70;;
12900;SDS011;6518;50.930;5.344;2022-12-29T02:57:03;1.00;;;0.60;;
12900;SDS011;6518;50.930;5.344;2022-12-29T02:59:31;1.73;;;0.80;;
12900;SDS011;6518;50.930;5.344;2022-12-29T03:05:03;1.70;;;0.77;;
12900;SDS011;6518;50.930;5.344;2022-12-29T03:07:47;1.67;;;0.83;;
12900;SDS011;6518;50.930;5.344;2022-12-29T03:10:25;1.17;;;0.80;;
12900;SDS011;6518;50.930;5.344;2022-12-29T03:13:01;1.23;;;0.70;;
12900;SDS011;6518;50.930;5.344;2022-12-29T03:15:50;1.77;;;0.60;;
12900;SDS011;6518;50.930;5.344;2022-12-29T03:18:29;1.33;;;0.53;;
12900;SDS011;6518;50.930;5.344;2022-12-29T03:21:05;1.10;;;0.80;;
12900;SDS011;6518;50.930;5.344;2022-12-29T03:23:36;1.77;;;0.73;;
12900;SDS011;6518;50.930;5.344;2022-12-29T03:26:06;1.97;;;0.70;;
12900;SDS011;6518;50.930;5.344;2022-12-29T03:28:38;3.27;;;1.10;;
12900;SDS011;6518;50.930;5.344;2022-12-29T03:31:09;1.23;;;0.60;;
12900;SDS011;6518;50.930;5.344;2022-12-29T03:33:38;1.53;;;0.87;;
12900;SDS011;6518;50.930;5.344;2022-12-29T03:36:08;1.53;;;0.83;;
12900;SDS011;6518;50.930;5.344;2022-12-29T03:38:39;1.20;;;0.70;;
12900;SDS011;6518;50.930;5.344;2022-12-29T03:41:11;2.90;;;0.60;;
12900;SDS011;6518;50.930;5.344;2022-12-29T03:43:42;2.80;;;0.80;;
12900;SDS011;6518;50.930;5.344;2022-12-29T03:46:09;3.63;;;1.37;;
12900;SDS011;6518;50.930;5.344;2022-12-29T03:48:36;4.07;;;0.80;;
12900;SDS011;6518;50.930;5.344;2022-12-29T03:51:04;4.03;;;0.70;;
12900;SDS011;6518;50.930;5.344;2022-12-29T03:53:31;1.33;;;0.80;;
12900;SDS011;6518;50.930;5.344;2022-12-29T03:55:58;2.13;;;0.90;;
12900;SDS011;6518;50.930;5.344;2022-12-29T03:58:24;1.57;;;0.80;;
12900;SDS011;6518;50.930;5.344;2022-12-29T04:00:51;1.03;;;0.63;;
12900;SDS011;6518;50.930;5.344;2022-12-29T04:03:18;2.07;;;0.73;;
12900;SDS011;6518;50.930;5.344;2022-12-29T04:05:45;1.60;;;0.70;;
12900;SDS011;6518;50.930;5.344;2022-12-29T04:08:13;1.33;;;0.70;;
12900;SDS011;6518;50.930;5.344;2022-12-29T04:10:40;2.97;;;0.80;;
12900;SDS011;6518;50.930;5.344;2022-12-29T04:13:06;4.10;;;1.10;;
12900;SDS011;6518;50.930;5.344;2022-12-29T04:15:33;3.53;;;1.00;;
12900;SDS011;6518;50.930;5.344;2022-12-29T04:18:00;4.47;;;1.13;;
12900;SDS011;6518;50.930;5.344;2022-12-29T04:20:27;2.93;;;1.10;;
12900;SDS011;6518;50.930;5.344;2022-12-29T04:23:13;3.83;;;0.80;;
12900;SDS011;6518;50.930;5.344;2022-12-29T04:25:39;3.50;;;0.80;;
12900;SDS011;6518;50.930;5.344;2022-12-29T04:28:06;2.67;;;0.87;;
12900;SDS011;6518;50.930;5.344;2022-12-29T04:30:33;2.83;;;0.77;;
12900;SDS011;6518;50.930;5.344;2022-12-29T04:33:00;3.13;;;0.97;;
12900;SDS011;6518;50.930;5.344;2022-12-29T04:35:26;3.23;;;0.87;;
12900;SDS011;6518;50.930;5.344;2022-12-29T04:37:53;2.27;;;0.60;;
12900;SDS011;6518;50.930;5.344;2022-12-29T04:40:21;1.57;;;0.67;;
12900;SDS011;6518;50.930;5.344;2022-12-29T04:42:49;2.40;;;0.70;;
12900;SDS011;6518;50.930;5.344;2022-12-29T04:45:16;2.37;;;0.73;;
12900;SDS011;6518;50.930;5.344;2022-12-29T04:47:43;1.80;;;0.80;;
12900;SDS011;6518;50.930;5.344;2022-12-29T04:50:10;3.83;;;0.80;;
12900;SDS011;6518;50.930;5.344;2022-12-29T04:52:37;2.23;;;0.70;;
12900;SDS011;6518;50.930;5.344;2022-12-29T04:55:05;3.10;;;0.80;;
12900;SDS011;6518;50.930;5.344;2022-12-29T04:57:34;2.90;;;0.80;;
12900;SDS011;6518;50.930;5.344;2022-12-29T05:00:01;2.27;;;0.90;;
12900;SDS011;6518;50.930;5.344;2022-12-29T05:02:29;1.27;;;0.60;;
12900;SDS011;6518;50.930;5.344;2022-12-29T05:04:56;1.50;;;0.70;;
12900;SDS011;6518;50.930;5.344;2022-12-29T05:07:23;2.73;;;0.80;;
12900;SDS011;6518;50.930;5.344;2022-12-29T05:09:50;4.03;;;0.90;;
12900;SDS011;6518;50.930;5.344;2022-12-29T05:12:16;1.97;;;0.97;;
12900;SDS011;6518;50.930;5.344;2022-12-29T05:14:45;2.20;;;0.83;;
12900;SDS011;6518;50.930;5.344;2022-12-29T05:17:11;3.10;;;0.77;;
12900;SDS011;6518;50.930;5.344;2022-12-29T05:19:38;3.97;;;1.10;;
12900;SDS011;6518;50.930;5.344;2022-12-29T05:22:05;4.20;;;0.83;;
12900;SDS011;6518;50.930;5.344;2022-12-29T05:24:32;5.30;;;1.23;;
12900;SDS011;6518;50.930;5.344;2022-12-29T05:26:59;4.67;;;1.23;;
12900;SDS011;6518;50.930;5.344;2022-12-29T05:29:25;2.10;;;1.00;;
12900;SDS011;6518;50.930;5.344;2022-12-29T05:31:53;4.47;;;1.20;;
12900;SDS011;6518;50.930;5.344;2022-12-29T05:34:20;3.07;;;0.97;;
12900;SDS011;6518;50.930;5.344;2022-12-29T05:36:47;2.20;;;0.87;;
12900;SDS011;6518;50.930;5.344;2022-12-29T05:39:14;5.50;;;1.10;;
12900;SDS011;6518;50.930;5.344;2022-12-29T05:41:41;6.30;;;1.00;;
12900;SDS011;6518;50.930;5.344;2022-12-29T05:44:07;5.57;;;1.30;;
12900;SDS011;6518;50.930;5.344;2022-12-29T05:46:36;7.43;;;1.10;;
12900;SDS011;6518;50.930;5.344;2022-12-29T05:49:04;4.87;;;1.37;;
12900;SDS011;6518;50.930;5.344;2022-12-29T05:51:31;3.90;;;1.47;;
12900;SDS011;6518;50.930;5.344;2022-12-29T05:53:58;3.90;;;1.37;;
12900;SDS011;6518;50.930;5.344;2022-12-29T05:56:25;4.43;;;1.10;;
12900;SDS011;6518;50.930;5.344;2022-12-29T05:58:52;6.40;;;1.13;;
12900;SDS011;6518;50.930;5.344;2022-12-29T06:01:18;5.10;;;1.27;;
12900;SDS011;6518;50.930;5.344;2022-12-29T06:03:45;5.27;;;1.27;;
12900;SDS011;6518;50.930;5.344;2022-12-29T06:06:13;6.27;;;1.37;;
12900;SDS011;6518;50.930;5.344;2022-12-29T06:08:40;3.00;;;1.03;;
12900;SDS011;6518;50.930;5.344;2022-12-29T06:11:07;3.20;;;0.90;;
12900;SDS011;6518;50.930;5.344;2022-12-29T06:13:34;6.07;;;1.40;;
12900;SDS011;6518;50.930;5.344;2022-12-29T06:16:01;7.17;;;1.67;;
12900;SDS011;6518;50.930;5.344;2022-12-29T06:18:28;5.53;;;1.53;;
12900;SDS011;6518;50.930;5.344;2022-12-29T06:20:58;5.57;;;1.27;;
12900;SDS011;6518;50.930;5.344;2022-12-29T06:23:27;7.07;;;1.53;;
12900;SDS011;6518;50.930;5.344;2022-12-29T06:25:54;5.13;;;1.20;;
12900;SDS011;6518;50.930;5.344;2022-12-29T06:28:21;4.43;;;1.33;;
12900;SDS011;6518;50.930;5.344;2022-12-29T06:30:47;4.67;;;1.40;;
12900;SDS011;6518;50.930;5.344;2022-12-29T06:33:15;6.83;;;1.60;;
12900;SDS011;6518;50.930;5.344;2022-12-29T06:35:42;4.37;;;1.50;;
12900;SDS011;6518;50.930;5.344;2022-12-29T06:38:10;5.50;;;1.53;;
12900;SDS011;6518;50.930;5.344;2022-12-29T06:40:38;4.00;;;1.30;;
12900;SDS011;6518;50.930;5.344;2022-12-29T06:43:06;5.43;;;1.30;;
12900;SDS011;6518;50.930;5.344;2022-12-29T06:45:33;15.97;;;1.47;;
12900;SDS011;6518;50.930;5.344;2022-12-29T06:47:59;6.03;;;1.53;;
12900;SDS011;6518;50.930;5.344;2022-12-29T06:50:26;10.00;;;1.40;;
12900;SDS011;6518;50.930;5.344;2022-12-29T06:52:53;7.73;;;1.63;;
12900;SDS011;6518;50.930;5.344;2022-12-29T06:55:20;7.63;;;1.80;;
12900;SDS011;6518;50.930;5.344;2022-12-29T06:57:48;5.13;;;1.50;;
12900;SDS011;6518;50.930;5.344;2022-12-29T07:00:15;5.60;;;1.20;;
12900;SDS011;6518;50.930;5.344;2022-12-29T07:02:43;6.10;;;1.30;;
12900;SDS011;6518;50.930;5.344;2022-12-29T07:05:09;7.57;;;1.90;;
12900;SDS011;6518;50.930;5.344;2022-12-29T07:07:36;5.70;;;1.30;;
12900;SDS011;6518;50.930;5.344;2022-12-29T07:10:03;8.27;;;1.73;;
12900;SDS011;6518;50.930;5.344;2022-12-29T07:12:31;5.43;;;1.10;;
12900;SDS011;6518;50.930;5.344;2022-12-29T07:14:59;4.40;;;1.30;;
12900;SDS011;6518;50.930;5.344;2022-12-29T07:17:26;5.43;;;1.20;;
12900;SDS011;6518;50.930;5.344;2022-12-29T07:19:52;4.47;;;1.30;;
12900;SDS011;6518;50.930;5.344;2022-12-29T07:22:19;7.20;;;1.73;;
12900;SDS011;6518;50.930;5.344;2022-12-29T07:24:46;6.73;;;1.77;;
12900;SDS011;6518;50.930;5.344;2022-12-29T07:27:13;8.20;;;1.77;;
12900;SDS011;6518;50.930;5.344;2022-12-29T07:29:40;2.83;;;1.40;;
12900;SDS011;6518;50.930;5.344;2022-12-29T07:32:08;6.43;;;1.80;;
12900;SDS011;6518;50.930;5.344;2022-12-29T07:34:35;6.03;;;1.57;;
12900;SDS011;6518;50.930;5.344;2022-12-29T07:37:01;5.10;;;1.53;;
12900;SDS011;6518;50.930;5.344;2022-12-29T07:39:28;6.77;;;1.80;;
12900;SDS011;6518;50.930;5.344;2022-12-29T07:41:55;6.80;;;1.47;;
12900;SDS011;6518;50.930;5.344;2022-12-29T07:44:22;6.43;;;1.47;;
12900;SDS011;6518;50.930;5.344;2022-12-29T07:46:49;6.07;;;1.50;;
12900;SDS011;6518;50.930;5.344;2022-12-29T07:49:17;9.87;;;2.00;;
12900;SDS011;6518;50.930;5.344;2022-12-29T07:51:44;7.83;;;1.73;;
12900;SDS011;6518;50.930;5.344;2022-12-29T07:54:10;9.07;;;2.00;;
12900;SDS011;6518;50.930;5.344;2022-12-29T07:56:38;5.57;;;1.60;;
12900;SDS011;6518;50.930;5.344;2022-12-29T07:59:05;4.90;;;1.73;;
12900;SDS011;6518;50.930;5.344;2022-12-29T08:01:32;6.17;;;1.60;;
12900;SDS011;6518;50.930;5.344;2022-12-29T08:03:59;9.00;;;1.93;;
12900;SDS011;6518;50.930;5.344;2022-12-29T08:06:27;7.73;;;1.73;;
12900;SDS011;6518;50.930;5.344;2022-12-29T08:08:59;8.10;;;1.80;;
12900;SDS011;6518;50.930;5.344;2022-12-29T08:11:26;8.53;;;3.13;;
12900;SDS011;6518;50.930;5.344;2022-12-29T08:13:53;8.37;;;3.67;;
12900;SDS011;6518;50.930;5.344;2022-12-29T08:16:20;6.33;;;1.63;;
12900;SDS011;6518;50.930;5.344;2022-12-29T08:18:47;7.57;;;2.00;;
12900;SDS011;6518;50.930;5.344;2022-12-29T08:21:14;11.43;;;5.80;;
12900;SDS011;6518;50.930;5.344;2022-12-29T08:23:42;14.23;;;7.37;;
12900;SDS011;6518;50.930;5.344;2022-12-29T08:26:09;5.77;;;1.70;;
12900;SDS011;6518;50.930;5.344;2022-12-29T08:28:36;4.83;;;1.27;;
12900;SDS011;6518;50.930;5.344;2022-12-29T08:31:03;7.53;;;2.10;;
12900;SDS011;6518;50.930;5.344;2022-12-29T08:33:30;5.57;;;2.07;;
12900;SDS011;6518;50.930;5.344;2022-12-29T08:35:58;6.13;;;1.57;;
12900;SDS011;6518;50.930;5.344;2022-12-29T08:38:26;4.13;;;1.40;;
12900;SDS011;6518;50.930;5.344;2022-12-29T08:40:55;6.87;;;1.40;;
12900;SDS011;6518;50.930;5.344;2022-12-29T08:43:22;9.33;;;1.80;;
12900;SDS011;6518;50.930;5.344;2022-12-29T08:45:50;9.07;;;1.70;;
12900;SDS011;6518;50.930;5.344;2022-12-29T08:48:17;6.97;;;1.67;;
12900;SDS011;6518;50.930;5.344;2022-12-29T08:50:47;8.00;;;1.70;;
12900;SDS011;6518;50.930;5.344;2022-12-29T08:53:15;7.10;;;1.70;;
12900;SDS011;6518;50.930;5.344;2022-12-29T08:55:44;5.80;;;1.70;;
12900;SDS011;6518;50.930;5.344;2022-12-29T08:58:12;7.50;;;1.63;;
12900;SDS011;6518;50.930;5.344;2022-12-29T09:00:41;5.67;;;1.50;;
12900;SDS011;6518;50.930;5.344;2022-12-29T09:03:08;9.23;;;1.97;;
12900;SDS011;6518;50.930;5.344;2022-12-29T09:05:35;7.57;;;2.10;;
12900;SDS011;6518;50.930;5.344;2022-12-29T09:08:02;8.30;;;1.50;;
12900;SDS011;6518;50.930;5.344;2022-12-29T09:10:29;4.80;;;1.57;;
12900;SDS011;6518;50.930;5.344;2022-12-29T09:12:56;5.53;;;1.47;;
12900;SDS011;6518;50.930;5.344;2022-12-29T09:15:24;5.97;;;1.80;;
12900;SDS011;6518;50.930;5.344;2022-12-29T09:17:51;6.73;;;1.53;;
12900;SDS011;6518;50.930;5.344;2022-12-29T09:20:18;5.60;;;2.07;;
12900;SDS011;6518;50.930;5.344;2022-12-29T09:22:46;6.20;;;1.50;;
12900;SDS011;6518;50.930;5.344;2022-12-29T09:25:13;5.93;;;1.57;;
12900;SDS011;6518;50.930;5.344;2022-12-29T09:27:40;9.30;;;1.80;;
12900;SDS011;6518;50.930;5.344;2022-12-29T09:30:08;7.17;;;1.77;;
12900;SDS011;6518;50.930;5.344;2022-12-29T09:32:40;7.33;;;1.57;;
12900;SDS011;6518;50.930;5.344;2022-12-29T09:35:07;7.90;;;2.00;;
12900;SDS011;6518;50.930;5.344;2022-12-29T09:37:34;5.17;;;1.90;;
12900;SDS011;6518;50.930;5.344;2022-12-29T09:40:01;9.97;;;2.60;;
12900;SDS011;6518;50.930;5.344;2022-12-29T09:42:29;7.10;;;1.90;;
12900;SDS011;6518;50.930;5.344;2022-12-29T09:45:08;8.50;;;1.90;;
12900;SDS011;6518;50.930;5.344;2022-12-29T09:47:41;7.27;;;1.50;;
12900;SDS011;6518;50.930;5.344;2022-12-29T09:50:11;9.47;;;1.90;;
12900;SDS011;6518;50.930;5.344;2022-12-29T09:52:47;4.83;;;1.67;;
12900;SDS011;6518;50.930;5.344;2022-12-29T09:55:17;8.87;;;2.20;;
12900;SDS011;6518;50.930;5.344;2022-12-29T09:57:48;7.10;;;1.73;;
12900;SDS011;6518;50.930;5.344;2022-12-29T10:00:18;9.17;;;2.37;;
12900;SDS011;6518;50.930;5.344;2022-12-29T10:02:49;8.70;;;2.17;;
12900;SDS011;6518;50.930;5.344;2022-12-29T10:05:24;11.27;;;2.13;;
12900;SDS011;6518;50.930;5.344;2022-12-29T10:08:00;9.10;;;2.43;;
12900;SDS011;6518;50.930;5.344;2022-12-29T10:10:40;8.13;;;2.00;;
12900;SDS011;6518;50.930;5.344;2022-12-29T10:13:19;7.30;;;2.13;;
12900;SDS011;6518;50.930;5.344;2022-12-29T10:15:56;7.40;;;2.23;;
12900;SDS011;6518;50.930;5.344;2022-12-29T10:18:40;8.63;;;2.10;;
12900;SDS011;6518;50.930;5.344;2022-12-29T10:21:28;11.43;;;2.20;;
12900;SDS011;6518;50.930;5.344;2022-12-29T10:24:06;10.00;;;2.27;;
12900;SDS011;6518;50.930;5.344;2022-12-29T10:26:37;11.63;;;2.00;;
12900;SDS011;6518;50.930;5.344;2022-12-29T10:29:06;9.47;;;1.83;;
12900;SDS011;6518;50.930;5.344;2022-12-29T10:31:41;8.17;;;1.83;;
12900;SDS011;6518;50.930;5.344;2022-12-29T10:34:15;10.43;;;1.97;;
12900;SDS011;6518;50.930;5.344;2022-12-29T10:36:48;8.13;;;1.90;;
12900;SDS011;6518;50.930;5.344;2022-12-29T10:39:19;10.93;;;1.80;;
12900;SDS011;6518;50.930;5.344;2022-12-29T10:41:49;8.20;;;2.17;;
12900;SDS011;6518;50.930;5.344;2022-12-29T10:44:29;7.90;;;1.73;;
12900;SDS011;6518;50.930;5.344;2022-12-29T10:46:58;8.63;;;2.07;;
12900;SDS011;6518;50.930;5.344;2022-12-29T10:49:31;10.63;;;2.33;;
12900;SDS011;6518;50.930;5.344;2022-12-29T10:52:00;6.73;;;1.73;;
12900;SDS011;6518;50.930;5.344;2022-12-29T10:54:29;8.80;;;2.20;;
12900;SDS011;6518;50.930;5.344;2022-12-29T10:57:03;10.90;;;2.03;;
12900;SDS011;6518;50.930;5.344;2022-12-29T10:59:35;13.40;;;2.07;;
12900;SDS011;6518;50.930;5.344;2022-12-29T11:02:10;6.43;;;1.70;;
12900;SDS011;6518;50.930;5.344;2022-12-29T11:04:54;9.57;;;1.93;;
12900;SDS011;6518;50.930;5.344;2022-12-29T11:07:27;8.90;;;1.87;;
12900;SDS011;6518;50.930;5.344;2022-12-29T11:09:55;8.60;;;1.97;;
12900;SDS011;6518;50.930;5.344;2022-12-29T11:12:41;5.70;;;1.87;;
12900;SDS011;6518;50.930;5.344;2022-12-29T11:15:22;7.27;;;1.57;;
12900;SDS011;6518;50.930;5.344;2022-12-29T11:17:49;6.77;;;2.00;;
12900;SDS011;6518;50.930;5.344;2022-12-29T11:23:20;7.50;;;1.90;;
12900;SDS011;6518;50.930;5.344;2022-12-29T11:26:05;6.73;;;1.53;;
12900;SDS011;6518;50.930;5.344;2022-12-29T11:28:44;14.30;;;2.13;;
12900;SDS011;6518;50.930;5.344;2022-12-29T11:31:15;7.53;;;2.00;;
12900;SDS011;6518;50.930;5.344;2022-12-29T11:33:45;10.07;;;2.50;;
12900;SDS011;6518;50.930;5.344;2022-12-29T11:36:14;10.77;;;2.03;;
12900;SDS011;6518;50.930;5.344;2022-12-29T11:38:46;6.90;;;1.60;;
12900;SDS011;6518;50.930;5.344;2022-12-29T11:41:19;6.50;;;1.87;;
12900;SDS011;6518;50.930;5.344;2022-12-29T11:43:48;11.33;;;1.83;;
12900;SDS011;6518;50.930;5.344;2022-12-29T11:46:17;7.60;;;1.87;;
12900;SDS011;6518;50.930;5.344;2022-12-29T11:48:46;8.80;;;2.27;;
12900;SDS011;6518;50.930;5.344;2022-12-29T11:51:21;7.87;;;1.67;;
12900;SDS011;6518;50.930;5.344;2022-12-29T11:53:49;4.63;;;1.70;;
12900;SDS011;6518;50.930;5.344;2022-12-29T11:56:19;7.17;;;1.90;;
12900;SDS011;6518;50.930;5.344;2022-12-29T11:58:48;7.10;;;2.07;;
12900;SDS011;6518;50.930;5.344;2022-12-29T12:01:19;7.33;;;1.80;;
12900;SDS011;6518;50.930;5.344;2022-12-29T12:03:52;16.00;;;2.40;;
12900;SDS011;6518;50.930;5.344;2022-12-29T12:06:28;9.67;;;2.03;;
12900;SDS011;6518;50.930;5.344;2022-12-29T12:08:59;7.60;;;1.63;;
12900;SDS011;6518;50.930;5.344;2022-12-29T12:11:32;8.53;;;1.83;;
12900;SDS011;6518;50.930;5.344;2022-12-29T12:14:04;6.47;;;1.90;;
12900;SDS011;6518;50.930;5.344;2022-12-29T12:16:39;7.80;;;1.70;;
12900;SDS011;6518;50.930;5.344;2022-12-29T12:19:12;8.37;;;2.17;;
12900;SDS011;6518;50.930;5.344;2022-12-29T12:21:47;5.63;;;1.60;;
12900;SDS011;6518;50.930;5.344;2022-12-29T12:24:23;7.97;;;1.93;;
12900;SDS011;6518;50.930;5.344;2022-12-29T12:27:03;7.73;;;2.03;;
12900;SDS011;6518;50.930;5.344;2022-12-29T12:29:40;5.53;;;1.40;;
12900;SDS011;6518;50.930;5.344;2022-12-29T12:32:14;8.20;;;2.00;;
12900;SDS011;6518;50.930;5.344;2022-12-29T12:34:44;10.00;;;2.00;;
12900;SDS011;6518;50.930;5.344;2022-12-29T12:37:21;9.23;;;2.07;;
12900;SDS011;6518;50.930;5.344;2022-12-29T12:43:08;6.47;;;1.43;;
12900;SDS011;6518;50.930;5.344;2022-12-29T12:46:01;6.80;;;1.83;;
12900;SDS011;6518;50.930;5.344;2022-12-29T12:48:55;3.83;;;1.30;;
12900;SDS011;6518;50.930;5.344;2022-12-29T12:51:35;8.50;;;1.80;;
12900;SDS011;6518;50.930;5.344;2022-12-29T12:54:17;7.03;;;2.00;;
12900;SDS011;6518;50.930;5.344;2022-12-29T12:57:01;9.20;;;1.60;;
12900;SDS011;6518;50.930;5.344;2022-12-29T12:59:43;6.00;;;1.10;;
12900;SDS011;6518;50.930;5.344;2022-12-29T13:02:21;7.40;;;1.93;;
12900;SDS011;6518;50.930;5.344;2022-12-29T13:05:09;8.40;;;1.83;;
12900;SDS011;6518;50.930;5.344;2022-12-29T13:07:49;8.63;;;1.87;;
12900;SDS011;6518;50.930;5.344;2022-12-29T13:10:28;8.37;;;2.00;;
12900;SDS011;6518;50.930;5.344;2022-12-29T13:13:10;10.40;;;2.27;;
12900;SDS011;6518;50.930;5.344;2022-12-29T13:16:00;5.83;;;1.90;;
12900;SDS011;6518;50.930;5.344;2022-12-29T13:18:34;5.87;;;1.90;;
12900;SDS011;6518;50.930;5.344;2022-12-29T13:21:10;9.93;;;2.33;;
12900;SDS011;6518;50.930;5.344;2022-12-29T13:23:49;7.03;;;1.90;;
12900;SDS011;6518;50.930;5.344;2022-12-29T13:26:27;9.33;;;2.03;;
12900;SDS011;6518;50.930;5.344;2022-12-29T13:28:59;8.73;;;1.97;;
12900;SDS011;6518;50.930;5.344;2022-12-29T13:31:33;9.17;;;1.90;;
12900;SDS011;6518;50.930;5.344;2022-12-29T13:34:11;7.53;;;1.70;;
12900;SDS011;6518;50.930;5.344;2022-12-29T13:36:49;9.77;;;2.13;;
12900;SDS011;6518;50.930;5.344;2022-12-29T13:39:21;4.53;;;1.43;;
12900;SDS011;6518;50.930;5.344;2022-12-29T13:41:55;10.10;;;2.30;;
12900;SDS011;6518;50.930;5.344;2022-12-29T13:44:24;8.63;;;2.03;;
12900;SDS011;6518;50.930;5.344;2022-12-29T13:46:55;8.37;;;2.30;;
12900;SDS011;6518;50.930;5.344;2022-12-29T13:49:25;8.53;;;2.00;;
12900;SDS011;6518;50.930;5.344;2022-12-29T13:51:54;6.83;;;1.80;;
12900;SDS011;6518;50.930;5.344;2022-12-29T13:54:27;8.33;;;1.80;;
12900;SDS011;6518;50.930;5.344;2022-12-29T13:57:12;8.83;;;2.03;;
12900;SDS011;6518;50.930;5.344;2022-12-29T13:59:48;8.00;;;1.90;;
12900;SDS011;6518;50.930;5.344;2022-12-29T14:02:24;6.00;;;1.83;;
12900;SDS011;6518;50.930;5.344;2022-12-29T14:04:59;8.90;;;2.23;;
12900;SDS011;6518;50.930;5.344;2022-12-29T14:07:27;7.27;;;1.90;;
12900;SDS011;6518;50.930;5.344;2022-12-29T14:09:55;9.20;;;2.13;;
12900;SDS011;6518;50.930;5.344;2022-12-29T14:12:35;9.67;;;2.70;;
12900;SDS011;6518;50.930;5.344;2022-12-29T14:15:05;8.47;;;2.37;;
12900;SDS011;6518;50.930;5.344;2022-12-29T14:17:41;8.73;;;2.20;;
12900;SDS011;6518;50.930;5.344;2022-12-29T14:20:16;7.57;;;2.07;;
12900;SDS011;6518;50.930;5.344;2022-12-29T14:22:55;9.00;;;2.53;;
12900;SDS011;6518;50.930;5.344;2022-12-29T14:28:27;8.50;;;2.23;;
12900;SDS011;6518;50.930;5.344;2022-12-29T14:30:55;9.87;;;2.50;;
12900;SDS011;6518;50.930;5.344;2022-12-29T14:33:23;9.67;;;2.17;;
12900;SDS011;6518;50.930;5.344;2022-12-29T14:35:52;8.33;;;2.10;;
12900;SDS011;6518;50.930;5.344;2022-12-29T14:38:30;10.80;;;2.53;;
12900;SDS011;6518;50.930;5.344;2022-12-29T14:43:52;9.23;;;2.20;;
12900;SDS011;6518;50.930;5.344;2022-12-29T14:46:22;11.67;;;2.43;;
12900;SDS011;6518;50.930;5.344;2022-12-29T14:48:54;9.90;;;2.60;;
12900;SDS011;6518;50.930;5.344;2022-12-29T14:51:29;9.80;;;2.63;;
12900;SDS011;6518;50.930;5.344;2022-12-29T14:53:58;14.33;;;2.90;;
12900;SDS011;6518;50.930;5.344;2022-12-29T14:56:26;7.57;;;1.93;;
12900;SDS011;6518;50.930;5.344;2022-12-29T14:58:58;10.27;;;2.40;;
12900;SDS011;6518;50.930;5.344;2022-12-29T15:01:36;9.63;;;2.53;;
12900;SDS011;6518;50.930;5.344;2022-12-29T15:04:13;11.73;;;2.77;;
12900;SDS011;6518;50.930;5.344;2022-12-29T15:06:42;15.40;;;3.40;;
12900;SDS011;6518;50.930;5.344;2022-12-29T15:09:12;10.33;;;2.60;;
12900;SDS011;6518;50.930;5.344;2022-12-29T15:11:47;8.60;;;2.70;;
12900;SDS011;6518;50.930;5.344;2022-12-29T15:14:29;10.73;;;2.57;;
12900;SDS011;6518;50.930;5.344;2022-12-29T15:16:58;10.37;;;2.03;;
12900;SDS011;6518;50.930;5.344;2022-12-29T15:19:26;12.53;;;2.80;;
12900;SDS011;6518;50.930;5.344;2022-12-29T15:21:53;14.27;;;2.80;;
12900;SDS011;6518;50.930;5.344;2022-12-29T15:24:21;16.03;;;2.77;;
12900;SDS011;6518;50.930;5.344;2022-12-29T15:26:49;8.80;;;2.20;;
12900;SDS011;6518;50.930;5.344;2022-12-29T15:29:32;10.90;;;2.53;;
12900;SDS011;6518;50.930;5.344;2022-12-29T15:32:14;8.17;;;2.00;;
12900;SDS011;6518;50.930;5.344;2022-12-29T15:34:45;9.00;;;2.43;;
12900;SDS011;6518;50.930;5.344;2022-12-29T15:37:17;11.00;;;2.50;;
12900;SDS011;6518;50.930;5.344;2022-12-29T15:39:46;10.97;;;2.17;;
12900;SDS011;6518;50.930;5.344;2022-12-29T15:42:20;8.17;;;2.20;;